»·PEaware :: N6291D KSMX-KBFL

N6291D :: KSMX-KBFL

FLIGHT INFORMATION

Flight Status: Arrived
Operator: Privately registered:
United States
More flights under this callsign
Pilot: John sando (15571)
Aircraft: CESSNA 172 SKYHAWK
(C172)
More flights by this aircraft type
Origin: KSMX Santa Maria Pub/Capt Hancock
United States
Destination: KBFL Meadows
United States
More flights between these airports :: More routes between these airports
Route: +
File this flight plan on PilotEdge
Remarks: cat 5
Altitude:
(Current/Filed)
5,500ft
Speed:
(Current/Filed)
110kts
Departed: 11-Jun-17 02:55 PM
Arrived: 11-Jun-17 03:44 PM
Distance/Time
Traveled:
76nm/0:49
Distance/Time
To Go:
Arrived

Flight Plot

Page will automatically refresh every two minutes.


Map Options




Map Legend


Flown Route
Filed Route
Departure Airport
Arrival Airport
Navaid (VOR, NDB)
Fix

Horizontal Profiles

Position Reports

Time Latitude Longitude Heading Altitude Ground
Speed
11-Jun-17 14:37 34.906049 -120.457650 315 265ft 0kts
11-Jun-17 14:38 34.906049 -120.457650 315 265ft 0kts
11-Jun-17 14:39 34.906049 -120.457650 315 265ft 0kts
11-Jun-17 14:40 34.906049 -120.457650 315 265ft 0kts
11-Jun-17 14:41 34.906049 -120.457650 315 265ft 0kts
11-Jun-17 14:42 34.906049 -120.457650 315 265ft 0kts
11-Jun-17 14:43 34.906049 -120.457650 315 265ft 0kts
11-Jun-17 14:44 34.906049 -120.457650 315 265ft 0kts
11-Jun-17 14:45 34.906049 -120.457650 315 265ft 0kts
11-Jun-17 14:46 34.906049 -120.457650 315 265ft 0kts
11-Jun-17 14:47 34.906049 -120.457650 315 265ft 0kts
11-Jun-17 14:48 34.905984 -120.458605 234 265ft 11kts
11-Jun-17 14:49 34.902284 -120.454663 136 265ft 24kts
11-Jun-17 14:50 34.897079 -120.448427 138 265ft 28kts
11-Jun-17 14:51 34.893581 -120.445388 184 265ft 0kts
11-Jun-17 14:52 34.893573 -120.445388 181 265ft 0kts
11-Jun-17 14:53 34.893573 -120.445388 181 265ft 0kts
11-Jun-17 14:54 34.893573 -120.445388 181 265ft 0kts
11-Jun-17 14:55 34.893573 -120.445388 181 265ft 0kts
11-Jun-17 14:56 34.893198 -120.445538 240 265ft 14kts
11-Jun-17 14:57 34.900469 -120.454938 301 840ft 51kts
11-Jun-17 14:58 34.910317 -120.468180 312 1759ft 50kts
11-Jun-17 14:59 34.922300 -120.470789 49 2583ft 91kts
11-Jun-17 15:00 34.930679 -120.442359 72 3411ft 95kts
11-Jun-17 15:01 34.933096 -120.408939 74 4154ft 101kts
11-Jun-17 15:02 34.936084 -120.375722 61 4897ft 97kts
11-Jun-17 15:03 34.947219 -120.346358 50 5515ft 101kts
11-Jun-17 15:04 34.961120 -120.314799 56 5657ft 119kts
11-Jun-17 15:05 34.975135 -120.275588 57 5652ft 124kts
11-Jun-17 15:06 34.989495 -120.236691 62 5682ft 126kts
11-Jun-17 15:07 35.002908 -120.195913 55 5624ft 130kts
11-Jun-17 15:08 35.020348 -120.156694 59 5548ft 132kts
11-Jun-17 15:09 35.035598 -120.116125 63 5538ft 130kts
11-Jun-17 15:10 35.048769 -120.074989 67 5537ft 129kts
11-Jun-17 15:11 35.061526 -120.033844 69 5555ft 126kts
11-Jun-17 15:12 35.075011 -119.992533 66 5540ft 132kts
11-Jun-17 15:13 35.090255 -119.950340 59 5502ft 133kts
11-Jun-17 15:14 35.107073 -119.911962 58 5457ft 134kts
11-Jun-17 15:15 35.125264 -119.872374 63 5448ft 133kts
11-Jun-17 15:16 35.143212 -119.833403 47 5455ft 130kts
11-Jun-17 15:17 35.159371 -119.792591 62 5465ft 130kts
11-Jun-17 15:18 35.173637 -119.753264 64 5534ft 130kts
11-Jun-17 15:19 35.188956 -119.716007 69 5596ft 130kts
11-Jun-17 15:20 35.202576 -119.676038 65 5670ft 130kts
11-Jun-17 15:21 35.216967 -119.636013 61 5713ft 127kts
11-Jun-17 15:22 35.231138 -119.596488 64 5737ft 126kts
11-Jun-17 15:23 35.246954 -119.558809 52 5758ft 124kts
11-Jun-17 15:24 35.257085 -119.518188 81 5765ft 127kts
11-Jun-17 15:25 35.269784 -119.478408 60 5716ft 128kts
11-Jun-17 15:26 35.283478 -119.438430 74 5626ft 129kts
11-Jun-17 15:27 35.297873 -119.398868 65 5530ft 128kts
11-Jun-17 15:28 35.312313 -119.358614 63 5337ft 131kts
11-Jun-17 15:29 35.328025 -119.321503 62 5148ft 130kts
11-Jun-17 15:30 35.331567 -119.277693 100 4916ft 133kts
11-Jun-17 15:31 35.323144 -119.233973 77 4515ft 145kts
11-Jun-17 15:32 35.339740 -119.195242 61 4187ft 127kts
11-Jun-17 15:33 35.343251 -119.157607 100 4090ft 104kts
11-Jun-17 15:34 35.338325 -119.143164 125 4087ft 97kts
11-Jun-17 15:35 35.320261 -119.117560 133 3979ft 98kts
11-Jun-17 15:36 35.311149 -119.086878 78 3872ft 100kts
11-Jun-17 15:37 35.324162 -119.058926 52 3791ft 97kts
11-Jun-17 15:38 35.338041 -119.031108 54 3699ft 98kts
11-Jun-17 15:39 35.350523 -119.002317 54 3773ft 98kts
11-Jun-17 15:40 35.362907 -118.970134 66 3821ft 115kts
11-Jun-17 15:41 35.382441 -118.947776 3 3916ft 101kts
11-Jun-17 15:42 35.410850 -118.950613 304 3693ft 103kts
11-Jun-17 15:43 35.409274 -118.986265 271 2704ft 108kts
11-Jun-17 15:44 35.397444 -119.018208 248 1683ft 106kts
11-Jun-17 15:45 35.417631 -119.036095 301 810ft 102kts
11-Jun-17 15:46 35.432924 -119.055190 314 487ft 24kts
11-Jun-17 15:47 35.435890 -119.058060 353 490ft 17kts
11-Jun-17 15:48 35.437655 -119.056971 46 498ft 17kts
11-Jun-17 15:49 35.437844 -119.056647 96 498ft 0kts
11-Jun-17 15:50 35.437844 -119.056647 96 498ft 0kts
11-Jun-17 15:58 35.437593 -119.055126 139 501ft 0kts
11-Jun-17 15:59 35.437593 -119.055126 139 501ft 0kts

Navigation Log

Ident Type
1. KSMX Airport
2. KBFL Airport